sensor_id;sensor_type;location;lat;lon;timestamp;P1;durP1;ratioP1;P2;durP2;ratioP2
4268;SDS011;2148;48.554;7.834;2023-07-30T00:00:27;2.90;;;2.27;;
4268;SDS011;2148;48.554;7.834;2023-07-30T00:02:53;2.77;;;2.40;;
4268;SDS011;2148;48.554;7.834;2023-07-30T00:05:18;3.50;;;2.20;;
4268;SDS011;2148;48.554;7.834;2023-07-30T00:07:43;2.70;;;2.40;;
4268;SDS011;2148;48.554;7.834;2023-07-30T00:10:08;5.90;;;2.40;;
4268;SDS011;2148;48.554;7.834;2023-07-30T00:12:34;2.63;;;2.43;;
4268;SDS011;2148;48.554;7.834;2023-07-30T00:14:59;2.97;;;2.67;;
4268;SDS011;2148;48.554;7.834;2023-07-30T00:17:24;5.80;;;3.00;;
4268;SDS011;2148;48.554;7.834;2023-07-30T00:19:50;3.40;;;3.00;;
4268;SDS011;2148;48.554;7.834;2023-07-30T00:22:15;3.30;;;3.00;;
4268;SDS011;2148;48.554;7.834;2023-07-30T00:24:40;6.03;;;3.83;;
4268;SDS011;2148;48.554;7.834;2023-07-30T00:27:05;3.83;;;3.43;;
4268;SDS011;2148;48.554;7.834;2023-07-30T00:29:31;5.07;;;3.50;;
4268;SDS011;2148;48.554;7.834;2023-07-30T00:31:56;4.27;;;3.87;;
4268;SDS011;2148;48.554;7.834;2023-07-30T00:34:21;4.27;;;3.87;;
4268;SDS011;2148;48.554;7.834;2023-07-30T00:36:46;3.80;;;3.50;;
4268;SDS011;2148;48.554;7.834;2023-07-30T00:39:12;4.17;;;3.63;;
4268;SDS011;2148;48.554;7.834;2023-07-30T00:41:37;3.93;;;3.53;;
4268;SDS011;2148;48.554;7.834;2023-07-30T00:44:02;5.03;;;3.47;;
4268;SDS011;2148;48.554;7.834;2023-07-30T00:46:29;4.10;;;3.40;;
4268;SDS011;2148;48.554;7.834;2023-07-30T00:48:54;5.10;;;3.97;;
4268;SDS011;2148;48.554;7.834;2023-07-30T00:51:20;4.50;;;3.53;;
4268;SDS011;2148;48.554;7.834;2023-07-30T00:53:45;3.93;;;3.60;;
4268;SDS011;2148;48.554;7.834;2023-07-30T00:56:11;3.60;;;3.30;;
4268;SDS011;2148;48.554;7.834;2023-07-30T00:58:36;5.90;;;3.70;;
4268;SDS011;2148;48.554;7.834;2023-07-30T01:01:01;3.93;;;3.40;;
4268;SDS011;2148;48.554;7.834;2023-07-30T01:03:27;5.07;;;3.53;;
4268;SDS011;2148;48.554;7.834;2023-07-30T01:05:52;6.13;;;3.57;;
4268;SDS011;2148;48.554;7.834;2023-07-30T01:08:17;4.70;;;3.50;;
4268;SDS011;2148;48.554;7.834;2023-07-30T01:10:43;8.40;;;3.80;;
4268;SDS011;2148;48.554;7.834;2023-07-30T01:13:08;3.83;;;3.23;;
4268;SDS011;2148;48.554;7.834;2023-07-30T01:15:34;3.77;;;3.47;;
4268;SDS011;2148;48.554;7.834;2023-07-30T01:18:00;4.70;;;3.90;;
4268;SDS011;2148;48.554;7.834;2023-07-30T01:20:29;4.10;;;3.70;;
4268;SDS011;2148;48.554;7.834;2023-07-30T01:22:55;5.23;;;3.70;;
4268;SDS011;2148;48.554;7.834;2023-07-30T01:25:21;3.97;;;3.67;;
4268;SDS011;2148;48.554;7.834;2023-07-30T01:27:50;3.80;;;3.50;;
4268;SDS011;2148;48.554;7.834;2023-07-30T01:30:17;3.90;;;3.50;;
4268;SDS011;2148;48.554;7.834;2023-07-30T01:32:48;4.17;;;3.87;;
4268;SDS011;2148;48.554;7.834;2023-07-30T01:35:14;3.90;;;3.60;;
4268;SDS011;2148;48.554;7.834;2023-07-30T01:37:40;4.40;;;3.80;;
4268;SDS011;2148;48.554;7.834;2023-07-30T01:40:06;3.80;;;3.40;;
4268;SDS011;2148;48.554;7.834;2023-07-30T01:42:32;4.10;;;3.70;;
4268;SDS011;2148;48.554;7.834;2023-07-30T01:44:58;3.90;;;3.57;;
4268;SDS011;2148;48.554;7.834;2023-07-30T01:47:23;4.27;;;3.60;;
4268;SDS011;2148;48.554;7.834;2023-07-30T01:49:48;3.90;;;3.50;;
4268;SDS011;2148;48.554;7.834;2023-07-30T01:52:14;3.97;;;3.40;;
4268;SDS011;2148;48.554;7.834;2023-07-30T01:54:39;4.07;;;3.20;;
4268;SDS011;2148;48.554;7.834;2023-07-30T01:57:04;3.63;;;3.33;;
4268;SDS011;2148;48.554;7.834;2023-07-30T01:59:29;4.17;;;3.70;;
4268;SDS011;2148;48.554;7.834;2023-07-30T02:01:55;4.90;;;3.30;;
4268;SDS011;2148;48.554;7.834;2023-07-30T02:04:20;4.30;;;3.90;;
4268;SDS011;2148;48.554;7.834;2023-07-30T02:06:45;8.33;;;4.00;;
4268;SDS011;2148;48.554;7.834;2023-07-30T02:09:10;3.93;;;3.47;;
4268;SDS011;2148;48.554;7.834;2023-07-30T02:11:36;3.53;;;3.23;;
4268;SDS011;2148;48.554;7.834;2023-07-30T02:14:01;3.53;;;3.23;;
4268;SDS011;2148;48.554;7.834;2023-07-30T02:16:26;3.80;;;3.33;;
4268;SDS011;2148;48.554;7.834;2023-07-30T02:18:51;3.40;;;3.10;;
4268;SDS011;2148;48.554;7.834;2023-07-30T02:21:17;3.30;;;3.00;;
4268;SDS011;2148;48.554;7.834;2023-07-30T02:23:42;5.37;;;2.90;;
4268;SDS011;2148;48.554;7.834;2023-07-30T02:26:07;3.30;;;3.00;;
4268;SDS011;2148;48.554;7.834;2023-07-30T02:28:32;3.50;;;2.83;;
4268;SDS011;2148;48.554;7.834;2023-07-30T02:30:57;3.77;;;2.60;;
4268;SDS011;2148;48.554;7.834;2023-07-30T02:33:23;4.77;;;2.80;;
4268;SDS011;2148;48.554;7.834;2023-07-30T02:35:48;3.00;;;2.70;;
4268;SDS011;2148;48.554;7.834;2023-07-30T02:38:13;2.80;;;2.60;;
4268;SDS011;2148;48.554;7.834;2023-07-30T02:40:38;3.93;;;2.80;;
4268;SDS011;2148;48.554;7.834;2023-07-30T02:43:04;2.67;;;2.47;;
4268;SDS011;2148;48.554;7.834;2023-07-30T02:45:29;3.40;;;2.57;;
4268;SDS011;2148;48.554;7.834;2023-07-30T02:47:54;2.87;;;2.57;;
4268;SDS011;2148;48.554;7.834;2023-07-30T02:50:19;3.03;;;2.70;;
4268;SDS011;2148;48.554;7.834;2023-07-30T02:52:45;3.17;;;2.80;;
4268;SDS011;2148;48.554;7.834;2023-07-30T02:55:10;4.03;;;3.27;;
4268;SDS011;2148;48.554;7.834;2023-07-30T02:57:35;3.03;;;2.57;;
4268;SDS011;2148;48.554;7.834;2023-07-30T03:00:01;3.30;;;3.00;;
4268;SDS011;2148;48.554;7.834;2023-07-30T03:02:26;3.60;;;3.30;;
4268;SDS011;2148;48.554;7.834;2023-07-30T03:04:51;3.70;;;3.00;;
4268;SDS011;2148;48.554;7.834;2023-07-30T03:07:17;3.27;;;2.97;;
4268;SDS011;2148;48.554;7.834;2023-07-30T03:09:43;5.27;;;3.53;;
4268;SDS011;2148;48.554;7.834;2023-07-30T03:12:08;3.10;;;2.87;;
4268;SDS011;2148;48.554;7.834;2023-07-30T03:14:34;3.13;;;2.93;;
4268;SDS011;2148;48.554;7.834;2023-07-30T03:16:59;4.87;;;2.73;;
4268;SDS011;2148;48.554;7.834;2023-07-30T03:19:24;3.37;;;2.90;;
4268;SDS011;2148;48.554;7.834;2023-07-30T03:21:49;2.67;;;2.47;;
4268;SDS011;2148;48.554;7.834;2023-07-30T03:24:14;3.30;;;3.00;;
4268;SDS011;2148;48.554;7.834;2023-07-30T03:26:40;4.73;;;3.13;;
4268;SDS011;2148;48.554;7.834;2023-07-30T03:29:05;3.20;;;2.90;;
4268;SDS011;2148;48.554;7.834;2023-07-30T03:31:30;3.03;;;2.73;;
4268;SDS011;2148;48.554;7.834;2023-07-30T03:33:55;3.20;;;2.90;;
4268;SDS011;2148;48.554;7.834;2023-07-30T03:36:21;3.27;;;2.83;;
4268;SDS011;2148;48.554;7.834;2023-07-30T03:38:46;4.30;;;2.93;;
4268;SDS011;2148;48.554;7.834;2023-07-30T03:41:11;2.97;;;2.70;;
4268;SDS011;2148;48.554;7.834;2023-07-30T03:43:36;3.67;;;2.90;;
4268;SDS011;2148;48.554;7.834;2023-07-30T03:46:02;2.97;;;2.70;;
4268;SDS011;2148;48.554;7.834;2023-07-30T03:48:27;3.30;;;2.90;;
4268;SDS011;2148;48.554;7.834;2023-07-30T03:50:53;3.90;;;3.33;;
4268;SDS011;2148;48.554;7.834;2023-07-30T03:53:18;3.07;;;2.87;;
4268;SDS011;2148;48.554;7.834;2023-07-30T03:55:44;3.83;;;3.43;;
4268;SDS011;2148;48.554;7.834;2023-07-30T03:58:09;3.67;;;2.97;;
4268;SDS011;2148;48.554;7.834;2023-07-30T04:00:34;4.67;;;2.97;;
4268;SDS011;2148;48.554;7.834;2023-07-30T04:02:59;3.20;;;2.90;;
4268;SDS011;2148;48.554;7.834;2023-07-30T04:05:25;4.10;;;3.13;;
4268;SDS011;2148;48.554;7.834;2023-07-30T04:07:50;3.23;;;2.93;;
4268;SDS011;2148;48.554;7.834;2023-07-30T04:10:15;5.90;;;3.70;;
4268;SDS011;2148;48.554;7.834;2023-07-30T04:12:41;3.87;;;3.43;;
4268;SDS011;2148;48.554;7.834;2023-07-30T04:15:06;4.10;;;2.90;;
4268;SDS011;2148;48.554;7.834;2023-07-30T04:17:32;4.87;;;3.27;;
4268;SDS011;2148;48.554;7.834;2023-07-30T04:19:57;4.00;;;3.30;;
4268;SDS011;2148;48.554;7.834;2023-07-30T04:22:22;5.13;;;3.50;;
4268;SDS011;2148;48.554;7.834;2023-07-30T04:24:47;3.77;;;3.47;;
4268;SDS011;2148;48.554;7.834;2023-07-30T04:27:12;3.80;;;3.40;;
4268;SDS011;2148;48.554;7.834;2023-07-30T04:29:38;3.40;;;3.10;;
4268;SDS011;2148;48.554;7.834;2023-07-30T04:32:03;3.73;;;3.43;;
4268;SDS011;2148;48.554;7.834;2023-07-30T04:34:29;3.37;;;3.07;;
4268;SDS011;2148;48.554;7.834;2023-07-30T04:36:54;3.70;;;3.40;;
4268;SDS011;2148;48.554;7.834;2023-07-30T04:39:19;3.37;;;3.07;;
4268;SDS011;2148;48.554;7.834;2023-07-30T04:41:44;4.70;;;3.23;;
4268;SDS011;2148;48.554;7.834;2023-07-30T04:44:10;3.80;;;3.50;;
4268;SDS011;2148;48.554;7.834;2023-07-30T04:46:35;4.47;;;3.40;;
4268;SDS011;2148;48.554;7.834;2023-07-30T04:49:02;3.53;;;3.23;;
4268;SDS011;2148;48.554;7.834;2023-07-30T04:51:29;3.53;;;3.20;;
4268;SDS011;2148;48.554;7.834;2023-07-30T04:53:54;4.33;;;3.33;;
4268;SDS011;2148;48.554;7.834;2023-07-30T04:56:19;3.73;;;3.43;;
4268;SDS011;2148;48.554;7.834;2023-07-30T04:58:44;4.50;;;3.40;;
4268;SDS011;2148;48.554;7.834;2023-07-30T05:01:10;4.73;;;3.70;;
4268;SDS011;2148;48.554;7.834;2023-07-30T05:03:35;3.90;;;3.40;;
4268;SDS011;2148;48.554;7.834;2023-07-30T05:06:00;4.00;;;3.60;;
4268;SDS011;2148;48.554;7.834;2023-07-30T05:08:26;5.33;;;3.40;;
4268;SDS011;2148;48.554;7.834;2023-07-30T05:10:57;3.80;;;3.37;;
4268;SDS011;2148;48.554;7.834;2023-07-30T05:13:22;4.00;;;3.47;;
4268;SDS011;2148;48.554;7.834;2023-07-30T05:15:48;4.10;;;3.70;;
4268;SDS011;2148;48.554;7.834;2023-07-30T05:18:13;4.73;;;3.40;;
4268;SDS011;2148;48.554;7.834;2023-07-30T05:20:39;5.37;;;3.63;;
4268;SDS011;2148;48.554;7.834;2023-07-30T05:23:04;4.47;;;4.07;;
4268;SDS011;2148;48.554;7.834;2023-07-30T05:25:32;5.60;;;3.60;;
4268;SDS011;2148;48.554;7.834;2023-07-30T05:27:57;4.57;;;3.27;;
4268;SDS011;2148;48.554;7.834;2023-07-30T05:30:23;4.93;;;4.00;;
4268;SDS011;2148;48.554;7.834;2023-07-30T05:32:49;3.50;;;3.20;;
4268;SDS011;2148;48.554;7.834;2023-07-30T05:35:17;4.10;;;3.70;;
4268;SDS011;2148;48.554;7.834;2023-07-30T05:37:43;4.43;;;2.93;;
4268;SDS011;2148;48.554;7.834;2023-07-30T05:40:09;5.30;;;3.70;;
4268;SDS011;2148;48.554;7.834;2023-07-30T05:42:35;4.63;;;3.67;;
4268;SDS011;2148;48.554;7.834;2023-07-30T05:45:00;3.80;;;3.50;;
4268;SDS011;2148;48.554;7.834;2023-07-30T05:47:25;3.90;;;3.60;;
4268;SDS011;2148;48.554;7.834;2023-07-30T05:49:51;3.87;;;3.50;;
4268;SDS011;2148;48.554;7.834;2023-07-30T05:52:16;3.93;;;3.57;;
4268;SDS011;2148;48.554;7.834;2023-07-30T05:54:42;4.13;;;3.77;;
4268;SDS011;2148;48.554;7.834;2023-07-30T05:57:07;3.70;;;3.40;;
4268;SDS011;2148;48.554;7.834;2023-07-30T05:59:32;3.83;;;3.53;;
4268;SDS011;2148;48.554;7.834;2023-07-30T06:02:01;3.53;;;3.20;;
4268;SDS011;2148;48.554;7.834;2023-07-30T06:04:27;4.00;;;3.60;;
4268;SDS011;2148;48.554;7.834;2023-07-30T06:06:53;3.30;;;3.00;;
4268;SDS011;2148;48.554;7.834;2023-07-30T06:09:18;3.40;;;3.20;;
4268;SDS011;2148;48.554;7.834;2023-07-30T06:11:43;3.77;;;3.43;;
4268;SDS011;2148;48.554;7.834;2023-07-30T06:14:08;3.23;;;2.93;;
4268;SDS011;2148;48.554;7.834;2023-07-30T06:16:34;4.80;;;3.20;;
4268;SDS011;2148;48.554;7.834;2023-07-30T06:18:59;3.63;;;3.33;;
4268;SDS011;2148;48.554;7.834;2023-07-30T06:21:24;4.63;;;3.23;;
4268;SDS011;2148;48.554;7.834;2023-07-30T06:23:50;3.30;;;3.00;;
4268;SDS011;2148;48.554;7.834;2023-07-30T06:26:15;3.23;;;2.90;;
4268;SDS011;2148;48.554;7.834;2023-07-30T06:28:41;3.40;;;3.10;;
4268;SDS011;2148;48.554;7.834;2023-07-30T06:31:06;3.70;;;3.10;;
4268;SDS011;2148;48.554;7.834;2023-07-30T06:33:31;3.70;;;3.40;;
4268;SDS011;2148;48.554;7.834;2023-07-30T06:35:57;3.33;;;3.03;;
4268;SDS011;2148;48.554;7.834;2023-07-30T06:38:22;3.87;;;3.30;;
4268;SDS011;2148;48.554;7.834;2023-07-30T06:40:47;4.03;;;3.53;;
4268;SDS011;2148;48.554;7.834;2023-07-30T06:43:12;4.80;;;3.43;;
4268;SDS011;2148;48.554;7.834;2023-07-30T06:45:38;5.10;;;3.20;;
4268;SDS011;2148;48.554;7.834;2023-07-30T06:48:03;3.83;;;3.30;;
4268;SDS011;2148;48.554;7.834;2023-07-30T06:50:29;9.30;;;4.07;;
4268;SDS011;2148;48.554;7.834;2023-07-30T06:52:54;4.47;;;3.70;;
4268;SDS011;2148;48.554;7.834;2023-07-30T06:55:19;4.30;;;3.40;;
4268;SDS011;2148;48.554;7.834;2023-07-30T06:57:44;7.63;;;3.40;;
4268;SDS011;2148;48.554;7.834;2023-07-30T07:00:10;3.93;;;3.40;;
4268;SDS011;2148;48.554;7.834;2023-07-30T07:02:36;4.17;;;3.77;;
4268;SDS011;2148;48.554;7.834;2023-07-30T07:05:01;4.43;;;4.03;;
4268;SDS011;2148;48.554;7.834;2023-07-30T07:07:27;3.80;;;3.50;;
4268;SDS011;2148;48.554;7.834;2023-07-30T07:09:52;4.67;;;4.07;;
4268;SDS011;2148;48.554;7.834;2023-07-30T07:12:17;4.47;;;4.00;;
4268;SDS011;2148;48.554;7.834;2023-07-30T07:14:42;4.17;;;3.77;;
4268;SDS011;2148;48.554;7.834;2023-07-30T07:17:08;3.63;;;3.33;;
4268;SDS011;2148;48.554;7.834;2023-07-30T07:19:33;3.93;;;3.53;;
4268;SDS011;2148;48.554;7.834;2023-07-30T07:22:02;4.33;;;3.47;;
4268;SDS011;2148;48.554;7.834;2023-07-30T07:24:29;3.63;;;3.33;;
4268;SDS011;2148;48.554;7.834;2023-07-30T07:26:56;4.13;;;3.50;;
4268;SDS011;2148;48.554;7.834;2023-07-30T07:29:21;3.67;;;3.33;;
4268;SDS011;2148;48.554;7.834;2023-07-30T07:31:46;3.90;;;3.50;;
4268;SDS011;2148;48.554;7.834;2023-07-30T07:34:11;4.97;;;3.57;;
4268;SDS011;2148;48.554;7.834;2023-07-30T07:36:37;7.90;;;3.80;;
4268;SDS011;2148;48.554;7.834;2023-07-30T07:39:03;4.37;;;3.37;;
4268;SDS011;2148;48.554;7.834;2023-07-30T07:41:28;4.47;;;3.30;;
4268;SDS011;2148;48.554;7.834;2023-07-30T07:43:53;3.37;;;3.00;;
4268;SDS011;2148;48.554;7.834;2023-07-30T07:46:19;4.07;;;3.37;;
4268;SDS011;2148;48.554;7.834;2023-07-30T07:48:44;3.23;;;2.93;;
4268;SDS011;2148;48.554;7.834;2023-07-30T07:51:09;3.50;;;3.10;;
4268;SDS011;2148;48.554;7.834;2023-07-30T07:53:35;3.20;;;3.00;;
4268;SDS011;2148;48.554;7.834;2023-07-30T07:56:01;2.90;;;2.60;;
4268;SDS011;2148;48.554;7.834;2023-07-30T07:58:26;3.07;;;2.80;;
4268;SDS011;2148;48.554;7.834;2023-07-30T08:00:56;3.33;;;2.90;;
4268;SDS011;2148;48.554;7.834;2023-07-30T08:03:22;3.30;;;3.00;;
4268;SDS011;2148;48.554;7.834;2023-07-30T08:05:48;3.10;;;2.90;;
4268;SDS011;2148;48.554;7.834;2023-07-30T08:08:14;3.00;;;2.80;;
4268;SDS011;2148;48.554;7.834;2023-07-30T08:10:39;6.60;;;2.57;;
4268;SDS011;2148;48.554;7.834;2023-07-30T08:13:05;3.37;;;2.80;;
4268;SDS011;2148;48.554;7.834;2023-07-30T08:15:30;2.70;;;2.50;;
4268;SDS011;2148;48.554;7.834;2023-07-30T08:17:55;3.03;;;2.80;;
4268;SDS011;2148;48.554;7.834;2023-07-30T08:20:21;3.73;;;2.70;;
4268;SDS011;2148;48.554;7.834;2023-07-30T08:22:46;9.43;;;2.70;;
4268;SDS011;2148;48.554;7.834;2023-07-30T08:25:12;3.03;;;2.50;;
4268;SDS011;2148;48.554;7.834;2023-07-30T08:27:37;2.63;;;2.43;;
4268;SDS011;2148;48.554;7.834;2023-07-30T08:30:02;3.10;;;2.90;;
4268;SDS011;2148;48.554;7.834;2023-07-30T08:32:28;8.07;;;2.90;;
4268;SDS011;2148;48.554;7.834;2023-07-30T08:34:53;2.97;;;2.70;;
4268;SDS011;2148;48.554;7.834;2023-07-30T08:37:18;4.03;;;2.83;;
4268;SDS011;2148;48.554;7.834;2023-07-30T08:39:43;3.90;;;2.43;;
4268;SDS011;2148;48.554;7.834;2023-07-30T08:42:09;2.63;;;2.43;;
4268;SDS011;2148;48.554;7.834;2023-07-30T08:44:34;4.17;;;2.80;;
4268;SDS011;2148;48.554;7.834;2023-07-30T08:46:59;2.93;;;2.60;;
4268;SDS011;2148;48.554;7.834;2023-07-30T08:49:25;3.00;;;2.77;;
4268;SDS011;2148;48.554;7.834;2023-07-30T08:51:52;4.90;;;3.17;;
4268;SDS011;2148;48.554;7.834;2023-07-30T08:54:18;3.00;;;2.80;;
4268;SDS011;2148;48.554;7.834;2023-07-30T08:56:45;2.70;;;2.50;;
4268;SDS011;2148;48.554;7.834;2023-07-30T08:59:11;2.83;;;2.63;;
4268;SDS011;2148;48.554;7.834;2023-07-30T09:01:38;3.90;;;2.50;;
4268;SDS011;2148;48.554;7.834;2023-07-30T09:04:05;2.67;;;2.47;;
4268;SDS011;2148;48.554;7.834;2023-07-30T09:06:31;4.67;;;3.17;;
4268;SDS011;2148;48.554;7.834;2023-07-30T09:08:57;3.00;;;2.70;;
4268;SDS011;2148;48.554;7.834;2023-07-30T09:11:25;2.77;;;2.57;;
4268;SDS011;2148;48.554;7.834;2023-07-30T09:13:51;2.83;;;2.60;;
4268;SDS011;2148;48.554;7.834;2023-07-30T09:16:18;4.43;;;3.00;;
4268;SDS011;2148;48.554;7.834;2023-07-30T09:18:45;3.03;;;2.73;;
4268;SDS011;2148;48.554;7.834;2023-07-30T09:21:11;3.67;;;2.87;;
4268;SDS011;2148;48.554;7.834;2023-07-30T09:23:41;3.43;;;2.70;;
4268;SDS011;2148;48.554;7.834;2023-07-30T09:26:10;3.03;;;2.60;;
4268;SDS011;2148;48.554;7.834;2023-07-30T09:28:36;2.97;;;2.67;;
4268;SDS011;2148;48.554;7.834;2023-07-30T09:31:04;2.97;;;2.77;;
4268;SDS011;2148;48.554;7.834;2023-07-30T09:33:32;3.50;;;2.97;;
4268;SDS011;2148;48.554;7.834;2023-07-30T09:35:58;3.10;;;2.80;;
4268;SDS011;2148;48.554;7.834;2023-07-30T09:38:23;4.53;;;2.70;;
4268;SDS011;2148;48.554;7.834;2023-07-30T09:40:50;3.17;;;2.80;;
4268;SDS011;2148;48.554;7.834;2023-07-30T09:43:16;3.03;;;2.40;;
4268;SDS011;2148;48.554;7.834;2023-07-30T09:45:43;3.10;;;2.80;;
4268;SDS011;2148;48.554;7.834;2023-07-30T09:48:11;3.83;;;2.43;;
4268;SDS011;2148;48.554;7.834;2023-07-30T09:50:37;3.03;;;2.73;;
4268;SDS011;2148;48.554;7.834;2023-07-30T09:53:02;3.63;;;2.80;;
4268;SDS011;2148;48.554;7.834;2023-07-30T09:55:28;4.17;;;2.87;;
4268;SDS011;2148;48.554;7.834;2023-07-30T09:57:53;3.10;;;2.80;;
4268;SDS011;2148;48.554;7.834;2023-07-30T10:00:19;3.57;;;3.10;;
4268;SDS011;2148;48.554;7.834;2023-07-30T10:02:48;4.63;;;3.17;;
4268;SDS011;2148;48.554;7.834;2023-07-30T10:05:15;3.47;;;2.73;;
4268;SDS011;2148;48.554;7.834;2023-07-30T10:07:46;5.73;;;3.03;;
4268;SDS011;2148;48.554;7.834;2023-07-30T10:10:15;3.93;;;3.13;;
4268;SDS011;2148;48.554;7.834;2023-07-30T10:12:40;4.57;;;3.27;;
4268;SDS011;2148;48.554;7.834;2023-07-30T10:15:06;4.03;;;3.23;;
4268;SDS011;2148;48.554;7.834;2023-07-30T10:17:32;2.93;;;2.73;;
4268;SDS011;2148;48.554;7.834;2023-07-30T10:19:58;4.57;;;3.00;;
4268;SDS011;2148;48.554;7.834;2023-07-30T10:22:43;3.50;;;2.97;;
4268;SDS011;2148;48.554;7.834;2023-07-30T10:25:12;3.53;;;2.97;;
4268;SDS011;2148;48.554;7.834;2023-07-30T10:27:39;3.57;;;3.27;;
4268;SDS011;2148;48.554;7.834;2023-07-30T10:30:09;4.53;;;2.90;;
4268;SDS011;2148;48.554;7.834;2023-07-30T10:32:42;3.43;;;3.13;;
4268;SDS011;2148;48.554;7.834;2023-07-30T10:35:45;5.47;;;3.10;;
4268;SDS011;2148;48.554;7.834;2023-07-30T10:38:21;3.53;;;2.60;;
4268;SDS011;2148;48.554;7.834;2023-07-30T10:40:59;3.03;;;2.73;;
4268;SDS011;2148;48.554;7.834;2023-07-30T10:43:35;3.00;;;2.70;;
4268;SDS011;2148;48.554;7.834;2023-07-30T10:46:01;4.37;;;2.90;;
4268;SDS011;2148;48.554;7.834;2023-07-30T10:48:33;4.73;;;3.17;;
4268;SDS011;2148;48.554;7.834;2023-07-30T10:51:00;3.80;;;2.97;;
4268;SDS011;2148;48.554;7.834;2023-07-30T10:53:27;4.83;;;3.00;;
4268;SDS011;2148;48.554;7.834;2023-07-30T10:55:52;3.50;;;3.07;;
4268;SDS011;2148;48.554;7.834;2023-07-30T10:58:18;3.00;;;2.70;;
4268;SDS011;2148;48.554;7.834;2023-07-30T11:00:48;3.47;;;2.90;;
4268;SDS011;2148;48.554;7.834;2023-07-30T11:03:14;4.00;;;3.80;;
4268;SDS011;2148;48.554;7.834;2023-07-30T11:05:39;2.97;;;2.67;;
4268;SDS011;2148;48.554;7.834;2023-07-30T11:08:04;2.90;;;2.70;;
4268;SDS011;2148;48.554;7.834;2023-07-30T11:10:30;3.27;;;2.87;;
4268;SDS011;2148;48.554;7.834;2023-07-30T11:12:55;3.27;;;2.97;;
4268;SDS011;2148;48.554;7.834;2023-07-30T11:15:22;3.87;;;2.70;;
4268;SDS011;2148;48.554;7.834;2023-07-30T11:17:47;3.97;;;3.63;;
4268;SDS011;2148;48.554;7.834;2023-07-30T11:20:26;3.10;;;2.83;;
4268;SDS011;2148;48.554;7.834;2023-07-30T11:22:52;5.70;;;2.90;;
4268;SDS011;2148;48.554;7.834;2023-07-30T11:25:18;4.87;;;3.83;;
4268;SDS011;2148;48.554;7.834;2023-07-30T11:30:12;4.07;;;3.03;;
4268;SDS011;2148;48.554;7.834;2023-07-30T11:32:37;4.33;;;3.20;;
4268;SDS011;2148;48.554;7.834;2023-07-30T11:35:03;3.67;;;3.03;;
4268;SDS011;2148;48.554;7.834;2023-07-30T11:37:28;3.27;;;2.50;;
4268;SDS011;2148;48.554;7.834;2023-07-30T11:39:53;3.27;;;2.73;;
4268;SDS011;2148;48.554;7.834;2023-07-30T11:42:19;4.67;;;2.97;;
4268;SDS011;2148;48.554;7.834;2023-07-30T11:44:47;7.17;;;3.13;;
4268;SDS011;2148;48.554;7.834;2023-07-30T11:47:15;4.20;;;2.60;;
4268;SDS011;2148;48.554;7.834;2023-07-30T11:49:58;3.00;;;2.70;;
4268;SDS011;2148;48.554;7.834;2023-07-30T11:52:23;3.90;;;2.40;;
4268;SDS011;2148;48.554;7.834;2023-07-30T11:54:59;4.00;;;2.63;;
4268;SDS011;2148;48.554;7.834;2023-07-30T11:57:37;4.33;;;2.80;;
4268;SDS011;2148;48.554;7.834;2023-07-30T12:00:02;4.37;;;2.77;;
4268;SDS011;2148;48.554;7.834;2023-07-30T12:02:28;5.30;;;2.90;;
4268;SDS011;2148;48.554;7.834;2023-07-30T12:04:54;3.40;;;2.57;;
4268;SDS011;2148;48.554;7.834;2023-07-30T12:07:25;3.47;;;2.63;;
4268;SDS011;2148;48.554;7.834;2023-07-30T12:09:50;4.33;;;2.80;;
4268;SDS011;2148;48.554;7.834;2023-07-30T12:12:16;2.90;;;2.60;;
4268;SDS011;2148;48.554;7.834;2023-07-30T12:14:45;4.97;;;3.00;;
4268;SDS011;2148;48.554;7.834;2023-07-30T12:17:18;2.93;;;2.60;;
4268;SDS011;2148;48.554;7.834;2023-07-30T12:19:43;3.17;;;2.40;;
4268;SDS011;2148;48.554;7.834;2023-07-30T12:22:08;2.80;;;2.20;;
4268;SDS011;2148;48.554;7.834;2023-07-30T12:24:34;2.37;;;2.10;;
4268;SDS011;2148;48.554;7.834;2023-07-30T12:26:59;2.60;;;2.40;;
4268;SDS011;2148;48.554;7.834;2023-07-30T12:29:24;3.93;;;2.10;;
4268;SDS011;2148;48.554;7.834;2023-07-30T12:31:50;4.53;;;2.30;;
4268;SDS011;2148;48.554;7.834;2023-07-30T12:34:18;3.00;;;2.33;;
4268;SDS011;2148;48.554;7.834;2023-07-30T12:36:43;3.33;;;2.30;;
4268;SDS011;2148;48.554;7.834;2023-07-30T12:39:09;4.57;;;2.50;;
4268;SDS011;2148;48.554;7.834;2023-07-30T12:41:34;3.00;;;2.10;;
4268;SDS011;2148;48.554;7.834;2023-07-30T12:43:59;5.07;;;2.40;;
4268;SDS011;2148;48.554;7.834;2023-07-30T12:46:25;2.47;;;2.23;;
4268;SDS011;2148;48.554;7.834;2023-07-30T12:48:54;4.33;;;2.53;;
4268;SDS011;2148;48.554;7.834;2023-07-30T12:51:20;3.20;;;2.73;;
4268;SDS011;2148;48.554;7.834;2023-07-30T12:53:45;2.43;;;2.10;;
4268;SDS011;2148;48.554;7.834;2023-07-30T12:56:10;3.87;;;2.30;;
4268;SDS011;2148;48.554;7.834;2023-07-30T12:58:37;3.57;;;2.30;;
4268;SDS011;2148;48.554;7.834;2023-07-30T13:01:02;3.60;;;2.20;;
4268;SDS011;2148;48.554;7.834;2023-07-30T13:03:28;2.87;;;2.00;;
4268;SDS011;2148;48.554;7.834;2023-07-30T13:05:53;4.93;;;2.30;;
4268;SDS011;2148;48.554;7.834;2023-07-30T13:08:19;3.43;;;1.97;;
4268;SDS011;2148;48.554;7.834;2023-07-30T13:10:44;3.63;;;2.27;;
4268;SDS011;2148;48.554;7.834;2023-07-30T13:13:10;3.10;;;2.20;;
4268;SDS011;2148;48.554;7.834;2023-07-30T13:15:35;2.53;;;2.07;;
4268;SDS011;2148;48.554;7.834;2023-07-30T13:18:00;3.00;;;2.20;;
4268;SDS011;2148;48.554;7.834;2023-07-30T13:20:27;6.43;;;2.50;;
4268;SDS011;2148;48.554;7.834;2023-07-30T13:22:52;3.80;;;2.40;;
4268;SDS011;2148;48.554;7.834;2023-07-30T13:25:18;2.90;;;2.20;;
4268;SDS011;2148;48.554;7.834;2023-07-30T13:27:44;3.93;;;2.10;;
4268;SDS011;2148;48.554;7.834;2023-07-30T13:30:10;2.77;;;2.10;;
4268;SDS011;2148;48.554;7.834;2023-07-30T13:32:35;3.27;;;1.97;;
4268;SDS011;2148;48.554;7.834;2023-07-30T13:35:00;3.57;;;2.20;;
4268;SDS011;2148;48.554;7.834;2023-07-30T13:37:26;4.80;;;2.07;;
4268;SDS011;2148;48.554;7.834;2023-07-30T13:39:51;3.13;;;2.00;;
4268;SDS011;2148;48.554;7.834;2023-07-30T13:42:16;2.37;;;1.83;;
4268;SDS011;2148;48.554;7.834;2023-07-30T13:44:41;3.27;;;1.90;;
4268;SDS011;2148;48.554;7.834;2023-07-30T13:47:07;4.63;;;2.43;;
4268;SDS011;2148;48.554;7.834;2023-07-30T13:49:32;2.57;;;2.10;;
4268;SDS011;2148;48.554;7.834;2023-07-30T13:51:57;2.53;;;2.03;;
4268;SDS011;2148;48.554;7.834;2023-07-30T13:54:23;2.93;;;2.00;;
4268;SDS011;2148;48.554;7.834;2023-07-30T13:56:48;3.60;;;2.20;;
4268;SDS011;2148;48.554;7.834;2023-07-30T13:59:13;5.80;;;2.20;;
4268;SDS011;2148;48.554;7.834;2023-07-30T14:01:38;3.10;;;2.17;;
4268;SDS011;2148;48.554;7.834;2023-07-30T14:04:03;3.57;;;2.03;;
4268;SDS011;2148;48.554;7.834;2023-07-30T14:06:29;3.25;;;2.30;;
4268;SDS011;2148;48.554;7.834;2023-07-30T14:08:55;3.03;;;2.20;;
4268;SDS011;2148;48.554;7.834;2023-07-30T14:11:21;4.93;;;1.90;;
4268;SDS011;2148;48.554;7.834;2023-07-30T14:13:46;2.70;;;1.90;;
4268;SDS011;2148;48.554;7.834;2023-07-30T14:16:11;6.93;;;2.00;;
4268;SDS011;2148;48.554;7.834;2023-07-30T14:18:36;3.10;;;1.90;;
4268;SDS011;2148;48.554;7.834;2023-07-30T14:21:03;2.93;;;1.87;;
4268;SDS011;2148;48.554;7.834;2023-07-30T14:23:29;2.33;;;1.90;;
4268;SDS011;2148;48.554;7.834;2023-07-30T14:25:54;3.50;;;2.50;;
4268;SDS011;2148;48.554;7.834;2023-07-30T14:28:19;3.90;;;2.00;;
4268;SDS011;2148;48.554;7.834;2023-07-30T14:30:44;3.83;;;2.10;;
4268;SDS011;2148;48.554;7.834;2023-07-30T14:33:10;4.97;;;2.13;;
4268;SDS011;2148;48.554;7.834;2023-07-30T14:35:36;2.73;;;1.90;;
4268;SDS011;2148;48.554;7.834;2023-07-30T14:38:03;3.77;;;1.70;;
4268;SDS011;2148;48.554;7.834;2023-07-30T14:40:29;2.83;;;1.90;;
4268;SDS011;2148;48.554;7.834;2023-07-30T14:42:55;5.27;;;2.13;;
4268;SDS011;2148;48.554;7.834;2023-07-30T14:45:20;2.53;;;2.00;;
4268;SDS011;2148;48.554;7.834;2023-07-30T14:47:45;4.00;;;2.10;;
4268;SDS011;2148;48.554;7.834;2023-07-30T14:50:11;2.90;;;1.70;;
4268;SDS011;2148;48.554;7.834;2023-07-30T14:52:37;4.30;;;1.97;;
4268;SDS011;2148;48.554;7.834;2023-07-30T14:55:03;3.73;;;2.20;;
4268;SDS011;2148;48.554;7.834;2023-07-30T14:57:28;3.17;;;2.00;;
4268;SDS011;2148;48.554;7.834;2023-07-30T14:59:55;3.27;;;1.97;;
4268;SDS011;2148;48.554;7.834;2023-07-30T15:02:20;3.33;;;2.10;;
4268;SDS011;2148;48.554;7.834;2023-07-30T15:04:45;4.13;;;1.87;;
4268;SDS011;2148;48.554;7.834;2023-07-30T15:07:11;3.70;;;1.80;;
4268;SDS011;2148;48.554;7.834;2023-07-30T15:09:36;4.17;;;2.10;;